Time;durP1;ratioP1;P1;durP2;ratioP2;P2;SDS_P1;SDS_P2;PMS_P1;PMS_P2;Temp;Humidity;BMP_temperature;BMP_pressure;BME280_temperature;BME280_humidity;BME280_pressure;Samples;Min_cycle;Max_cycle;Signal;HPM_P1;HPM_P2
2022/05/19 00:05:18;;;;;;;0.40;0.40;;;17.60;49.60;19.60;94321.00;;;;10401896;28;45851;-60
2022/05/19 00:10:39;;;;;;;0.47;0.40;;;17.60;49.60;19.60;94310.00;;;;10401644;28;45414;-60
2022/05/19 00:16:01;;;;;;;0.52;0.43;;;17.60;49.60;19.60;94319.00;;;;10402235;28;45350;-60
2022/05/19 00:21:22;;;;;;;0.40;0.40;;;17.60;49.60;19.60;94318.00;;;;10401579;28;45156;-60
2022/05/19 00:26:43;;;;;;;0.50;0.40;;;17.60;49.60;19.60;94310.00;;;;10401103;28;45153;-60
2022/05/19 00:32:06;;;;;;;0.30;0.30;;;17.60;49.80;19.60;94327.00;;;;10401229;28;45688;-60
2022/05/19 00:37:27;;;;;;;0.85;0.40;;;17.50;49.50;19.60;94324.00;;;;10401163;28;45752;-60
2022/05/19 00:42:48;;;;;;;0.30;0.30;;;17.50;49.50;19.60;94322.00;;;;10400663;28;45184;-60
2022/05/19 00:48:18;;;;;;;0.50;0.50;;;17.50;49.50;19.60;94317.00;;;;10400091;28;45851;-60
2022/05/19 00:53:46;;;;;;;0.90;0.40;;;17.50;49.50;19.60;94329.00;;;;10400764;28;45846;-60
2022/05/19 00:59:10;;;;;;;0.32;0.30;;;17.60;49.60;19.60;94320.00;;;;10398129;28;45198;-60
2022/05/19 01:04:40;;;;;;;0.40;0.38;;;17.50;49.50;19.60;94307.00;;;;10397152;28;45352;-60
2022/05/19 01:10:01;;;;;;;1.10;0.40;;;17.50;49.60;19.60;94317.00;;;;10399052;28;45831;-60
2022/05/19 01:15:23;;;;;;;0.35;0.35;;;17.50;49.60;19.60;94320.00;;;;10400279;28;45796;-60
2022/05/19 01:20:46;;;;;;;0.50;0.40;;;17.50;49.60;19.60;94313.00;;;;10399791;28;45862;-60
2022/05/19 01:26:20;;;;;;;0.50;0.50;;;17.50;49.60;19.60;94316.00;;;;10399693;28;45214;-60
2022/05/19 01:31:49;;;;;;;0.38;0.38;;;17.50;49.60;19.60;94315.00;;;;10399202;28;45235;-60
2022/05/19 01:37:09;;;;;;;0.40;0.40;;;17.50;49.60;19.60;94326.00;;;;10399455;28;45241;-60
2022/05/19 01:42:42;;;;;;;0.77;0.45;;;17.50;49.60;19.60;94308.00;;;;10399165;28;45243;-59
2022/05/19 01:48:14;;;;;;;0.73;0.43;;;17.50;49.60;19.60;94315.00;;;;10397907;28;45187;-59
2022/05/19 01:53:42;;;;;;;0.63;0.40;;;17.50;49.60;19.60;94315.00;;;;10398510;28;45269;-59
2022/05/19 01:59:13;;;;;;;0.70;0.40;;;17.50;49.60;19.50;94316.00;;;;10397291;28;45311;-59
2022/05/19 02:04:40;;;;;;;0.47;0.47;;;17.50;49.60;19.60;94314.00;;;;10397620;28;45053;-59
2022/05/19 02:10:07;;;;;;;0.40;0.40;;;17.50;49.70;19.50;94316.00;;;;10396957;28;45224;-60
2022/05/19 02:15:30;;;;;;;0.50;0.47;;;17.50;49.70;19.50;94324.00;;;;10397562;28;45649;-59
2022/05/19 02:20:56;;;;;;;0.50;0.45;;;17.50;49.70;19.50;94323.00;;;;10397154;28;45191;-60
2022/05/19 02:26:17;;;;;;;0.50;0.35;;;17.50;49.70;19.50;94324.00;;;;10395907;28;45196;-60
2022/05/19 02:31:43;;;;;;;0.50;0.30;;;17.50;49.70;19.50;94329.00;;;;10396860;28;45158;-60
2022/05/19 02:37:07;;;;;;;0.32;0.32;;;17.50;49.70;19.50;94334.00;;;;10396654;28;45701;-59
2022/05/19 02:42:28;;;;;;;0.40;0.40;;;17.50;49.70;19.50;94341.00;;;;10396260;28;45210;-60
2022/05/19 02:47:49;;;;;;;0.50;0.40;;;17.50;49.70;19.50;94341.00;;;;10396220;28;45208;-60
2022/05/19 02:53:11;;;;;;;0.68;0.50;;;17.70;49.80;19.50;94337.00;;;;10396196;28;45230;-58
2022/05/19 02:58:32;;;;;;;0.50;0.43;;;17.40;49.70;19.50;94329.00;;;;10395448;28;45730;-59
2022/05/19 03:03:53;;;;;;;0.40;0.40;;;17.40;49.70;19.50;94335.00;;;;10396063;28;45179;-59
2022/05/19 03:09:15;;;;;;;0.57;0.52;;;17.40;49.70;19.40;94319.00;;;;10395090;28;45166;-59
2022/05/19 03:14:37;;;;;;;0.60;0.50;;;17.40;49.70;19.40;94332.00;;;;10395565;28;46360;-59
2022/05/19 03:19:58;;;;;;;0.40;0.40;;;17.40;49.70;19.40;94333.00;;;;10394961;28;45931;-59
2022/05/19 03:25:20;;;;;;;0.30;0.30;;;17.40;49.70;19.40;94329.00;;;;10395194;28;45211;-59
2022/05/19 03:30:41;;;;;;;0.30;0.30;;;17.40;49.70;19.40;94335.00;;;;10394883;28;45103;-59
2022/05/19 03:36:04;;;;;;;0.40;0.40;;;17.40;49.70;19.40;94342.00;;;;10394894;28;45743;-59
2022/05/19 03:41:26;;;;;;;0.50;0.47;;;17.40;49.70;19.40;94344.00;;;;10395006;28;46108;-59
2022/05/19 03:46:47;;;;;;;0.52;0.40;;;17.40;49.70;19.40;94346.00;;;;10394513;28;45875;-59
2022/05/19 03:52:08;;;;;;;0.30;0.30;;;17.40;50.40;19.40;94343.00;;;;10394192;28;45306;-59
2022/05/19 03:57:29;;;;;;;0.60;0.50;;;17.40;49.70;19.40;94344.00;;;;10394579;28;45189;-59
2022/05/19 04:02:50;;;;;;;0.40;0.40;;;17.40;49.80;19.40;94355.00;;;;10394330;28;45161;-60
2022/05/19 04:08:11;;;;;;;0.45;0.30;;;17.40;49.70;19.40;94337.00;;;;10393369;28;45760;-60
2022/05/19 04:13:33;;;;;;;0.40;0.40;;;17.40;49.70;19.40;94355.00;;;;10394270;28;45150;-60
2022/05/19 04:18:54;;;;;;;0.43;0.40;;;17.40;49.70;19.40;94349.00;;;;10393440;28;45924;-59
2022/05/19 04:24:15;;;;;;;1.02;0.47;;;17.40;49.70;19.40;94374.00;;;;10393996;28;45167;-59
2022/05/19 04:29:37;;;;;;;0.52;0.40;;;17.40;49.70;19.40;94373.00;;;;10393464;28;45188;-59
2022/05/19 04:34:57;;;;;;;0.60;0.50;;;17.40;49.70;19.40;94374.00;;;;10394080;28;45168;-59
2022/05/19 04:40:19;;;;;;;0.38;0.30;;;17.40;49.70;19.40;94370.00;;;;10393108;28;45142;-59
2022/05/19 04:45:42;;;;;;;0.80;0.50;;;17.40;49.70;19.40;94384.00;;;;10393712;28;45233;-60
2022/05/19 04:51:03;;;;;;;0.70;0.45;;;17.40;49.70;19.40;94392.00;;;;10406263;28;45099;-60
2022/05/19 04:56:23;;;;;;;0.60;0.40;;;17.40;49.60;19.40;94392.00;;;;10424121;28;45750;-60
2022/05/19 05:01:47;;;;;;;0.38;0.38;;;17.40;49.70;19.40;94391.00;;;;10420026;28;45125;-59
2022/05/19 05:07:08;;;;;;;0.60;0.50;;;17.40;49.60;19.40;94404.00;;;;10440378;28;45699;-60
2022/05/19 05:12:29;;;;;;;0.30;0.30;;;17.40;49.60;19.40;94410.00;;;;10393170;22;45877;-63
2022/05/19 05:17:51;;;;;;;0.40;0.40;;;17.40;49.60;19.40;94422.00;;;;10357897;28;45863;-63
2022/05/19 05:23:12;;;;;;;0.55;0.30;;;17.40;49.60;19.40;94429.00;;;;10398641;28;45171;-63
2022/05/19 05:28:32;;;;;;;0.40;0.40;;;17.40;49.50;19.50;94435.00;;;;10401752;28;45164;-63
2022/05/19 05:33:54;;;;;;;0.80;0.40;;;17.40;49.50;19.50;94444.00;;;;10415670;28;45273;-64
2022/05/19 05:39:14;;;;;;;0.30;0.30;;;17.40;49.50;19.40;94435.00;;;;10415724;28;45141;-64
2022/05/19 05:44:35;;;;;;;0.70;0.40;;;17.40;50.00;19.40;94454.00;;;;10425467;28;45514;-63
2022/05/19 05:49:57;;;;;;;0.32;0.30;;;17.40;49.50;19.50;94460.00;;;;10439258;28;45754;-63
2022/05/19 05:55:17;;;;;;;0.30;0.30;;;17.40;49.50;19.40;94464.00;;;;10439414;28;45171;-63
2022/05/19 06:00:39;;;;;;;0.30;0.30;;;17.40;49.50;19.40;94464.00;;;;10414099;28;45852;-63
2022/05/19 06:06:02;;;;;;;0.30;0.30;;;17.40;49.60;19.40;94460.00;;;;10418182;28;45793;-62
2022/05/19 06:11:23;;;;;;;0.63;0.47;;;17.40;49.50;19.40;94480.00;;;;10439261;28;45199;-63
2022/05/19 06:16:43;;;;;;;0.63;0.30;;;17.40;49.50;19.40;94468.00;;;;10439038;28;45167;-63
2022/05/19 06:22:05;;;;;;;0.22;0.22;;;17.40;49.50;19.50;94479.00;;;;10438772;28;45392;-63
2022/05/19 06:27:26;;;;;;;0.20;0.20;;;17.40;49.50;19.40;94485.00;;;;10429825;28;45133;-62
2022/05/19 06:32:48;;;;;;;0.57;0.43;;;17.40;49.50;19.40;94481.00;;;;10427333;28;45121;-62
2022/05/19 06:38:10;;;;;;;0.47;0.40;;;17.40;49.50;19.50;94474.00;;;;10438838;28;45956;-62
2022/05/19 06:43:30;;;;;;;0.40;0.40;;;17.40;49.50;19.50;94481.00;;;;10437988;28;45920;-63
2022/05/19 06:48:51;;;;;;;0.45;0.40;;;17.40;49.40;19.50;94477.00;;;;10436158;28;45695;-64
2022/05/19 06:54:13;;;;;;;0.20;0.20;;;17.40;49.40;19.50;94491.00;;;;10436602;28;45834;-63
2022/05/19 06:59:34;;;;;;;0.57;0.40;;;17.40;49.50;19.40;94479.00;;;;10437764;28;45161;-63
2022/05/19 07:04:54;;;;;;;0.30;0.30;;;17.40;49.40;19.40;94488.00;;;;10438787;28;45198;-64
2022/05/19 07:10:18;;;;;;;0.30;0.30;;;17.40;49.50;19.50;94491.00;;;;10436340;28;45247;-63
2022/05/19 07:15:39;;;;;;;0.32;0.32;;;17.40;49.40;19.50;94491.00;;;;10437375;28;45193;-63
2022/05/19 07:20:59;;;;;;;0.52;0.40;;;17.40;49.40;19.50;94505.00;;;;10437281;28;45157;-63
2022/05/19 07:26:22;;;;;;;0.45;0.40;;;17.40;49.40;19.40;94487.00;;;;10430347;28;45363;-66
2022/05/19 07:31:43;;;;;;;0.35;0.32;;;17.40;49.40;19.50;94489.00;;;;10415919;28;45927;-64
2022/05/19 07:37:05;;;;;;;0.40;0.35;;;17.40;49.40;19.50;94495.00;;;;10411581;28;45803;-63
2022/05/19 07:42:27;;;;;;;0.43;0.40;;;17.40;49.40;19.40;94495.00;;;;10419525;28;45853;-63
2022/05/19 07:47:48;;;;;;;0.40;0.35;;;17.40;49.40;19.50;94489.00;;;;10436074;28;45475;-63
2022/05/19 07:53:09;;;;;;;0.40;0.30;;;17.40;49.40;19.50;94493.00;;;;10436297;28;45197;-64
2022/05/19 07:58:31;;;;;;;0.70;0.30;;;17.40;49.40;19.50;94487.00;;;;10436040;28;45261;-63
2022/05/19 08:03:51;;;;;;;0.60;0.40;;;17.40;49.30;19.40;94493.00;;;;10436504;28;45247;-63
2022/05/19 08:20:31;;;;;;;0.30;0.30;;;17.40;49.40;19.50;94491.00;;;;10436442;28;45982;-64
2022/05/19 08:25:52;;;;;;;0.45;0.30;;;17.40;49.40;19.50;94497.00;;;;10443495;28;45160;-64
2022/05/19 08:31:18;;;;;;;0.30;0.30;;;17.40;49.40;19.50;94490.00;;;;10442710;28;45874;-64
2022/05/19 08:36:38;;;;;;;0.40;0.35;;;17.40;49.30;19.50;94491.00;;;;10441567;28;45537;-64
2022/05/19 08:42:04;;;;;;;0.50;0.40;;;17.40;49.30;19.50;94498.00;;;;10438906;28;45198;-64
2022/05/19 08:47:31;;;;;;;0.22;0.22;;;17.40;49.30;19.50;94505.00;;;;10410194;28;45420;-68
2022/05/19 08:52:52;;;;;;;0.40;0.40;;;17.40;49.40;19.50;94488.00;;;;10419063;28;45168;-62
2022/05/19 08:58:34;;;;;;;0.52;0.50;;;17.50;49.50;19.50;94483.00;;;;10421548;28;45459;-61
2022/05/19 09:04:16;;;;;;;0.80;0.43;;;17.40;50.10;19.50;94493.00;;;;10404128;28;45339;-64
2022/05/19 09:09:53;;;;;;;0.73;0.40;;;17.40;49.90;19.50;94492.00;;;;10398448;28;45136;-61
2022/05/19 09:15:15;;;;;;;0.52;0.50;;;17.40;50.30;19.50;94500.00;;;;10399133;28;45108;-61
2022/05/19 09:20:42;;;;;;;0.57;0.55;;;17.40;50.30;19.50;94488.00;;;;10399483;28;45700;-63
2022/05/19 09:26:27;;;;;;;0.57;0.57;;;17.40;50.30;19.50;94484.00;;;;10398551;28;45109;-61
2022/05/19 09:31:51;;;;;;;0.82;0.60;;;17.40;50.50;19.50;94482.00;;;;10398118;28;45099;-62
2022/05/19 09:37:16;;;;;;;0.75;0.70;;;17.40;50.60;19.50;94488.00;;;;10398179;28;45187;-61
2022/05/19 09:42:51;;;;;;;1.25;0.80;;;17.50;50.80;19.50;94487.00;;;;10399545;28;45262;-63
2022/05/19 09:48:13;;;;;;;1.23;0.70;;;17.40;51.00;19.50;94470.00;;;;10398797;28;45461;-62
2022/05/19 09:53:43;;;;;;;0.65;0.60;;;17.40;50.90;19.50;94487.00;;;;10398818;28;45256;-62
2022/05/19 09:59:08;;;;;;;1.05;0.70;;;17.40;50.70;19.50;94478.00;;;;10398017;28;45875;-62
2022/05/19 10:04:39;;;;;;;1.55;0.70;;;17.40;50.90;19.50;94482.00;;;;10398471;28;45290;-62
2022/05/19 10:10:01;;;;;;;0.98;0.80;;;17.40;50.90;19.50;94480.00;;;;10396851;28;45696;-63
2022/05/19 10:15:22;;;;;;;0.73;0.70;;;17.40;50.90;19.50;94476.00;;;;10382495;28;46117;-62
2022/05/19 10:20:49;;;;;;;1.42;0.80;;;17.40;51.10;19.50;94477.00;;;;10397991;28;45781;-61
2022/05/19 10:26:25;;;;;;;;;;;17.40;51.10;19.50;94467.00;;;;10397971;28;45692;-62
2022/05/19 10:31:54;;;;;;;1.45;0.85;;;17.40;51.10;19.50;94474.00;;;;10396900;28;45215;-62
2022/05/19 10:37:28;;;;;;;1.05;0.80;;;17.40;51.20;19.50;94456.00;;;;10396970;28;45569;-62
2022/05/19 10:43:02;;;;;;;0.82;0.80;;;17.40;51.20;19.50;94447.00;;;;10397016;28;45200;-62
2022/05/19 10:48:45;;;;;;;1.73;0.90;;;17.40;51.20;19.50;94456.00;;;;10397047;28;45171;-63
2022/05/19 10:54:34;;;;;;;1.88;0.90;;;17.40;51.20;19.50;94447.00;;;;10396460;28;45167;-62
2022/05/19 11:00:13;;;;;;;2.33;0.90;;;17.40;51.20;19.50;94448.00;;;;10396715;28;45150;-61
2022/05/19 11:05:49;;;;;;;1.63;0.88;;;17.40;51.50;19.50;94435.00;;;;10397406;28;45902;-64
2022/05/19 11:11:20;;;;;;;1.90;0.83;;;17.40;51.40;19.50;94436.00;;;;10453068;22;45231;-63
2022/05/19 11:16:49;;;;;;;1.85;0.80;;;17.50;51.40;19.50;94435.00;;;;10437143;28;45197;-63
2022/05/19 11:22:14;;;;;;;1.30;0.88;;;17.40;51.50;19.50;94425.00;;;;10437348;28;45291;-63
2022/05/19 11:27:40;;;;;;;3.05;1.00;;;17.40;51.40;19.50;94410.00;;;;10437296;28;45799;-63
2022/05/19 11:33:06;;;;;;;1.95;1.00;;;17.50;51.40;19.50;94415.00;;;;10437009;28;45130;-63
2022/05/19 11:38:32;;;;;;;1.88;1.10;;;17.50;51.50;19.50;94405.00;;;;10436780;28;45895;-62
2022/05/19 11:44:00;;;;;;;1.40;0.90;;;17.50;51.30;19.50;94413.00;;;;10436937;28;45191;-63
2022/05/19 11:55:19;;;;;;;1.60;1.00;;;17.50;51.30;19.60;94393.00;;;;10436528;28;45117;-63
2022/05/19 12:00:48;;;;;;;2.55;1.30;;;17.50;51.40;19.60;94404.00;;;;10436372;28;45693;-63
2022/05/19 12:06:21;;;;;;;1.73;1.00;;;17.50;52.00;19.60;94405.00;;;;10435709;28;45152;-63
2022/05/19 12:11:54;;;;;;;1.75;0.95;;;17.60;51.30;19.60;94398.00;;;;10421645;28;45863;-63
2022/05/19 12:17:31;;;;;;;2.17;1.20;;;17.60;51.50;19.60;94383.00;;;;10416008;28;45400;-63
2022/05/19 12:23:19;;;;;;;2.45;1.10;;;17.60;51.50;19.60;94383.00;;;;10435565;28;45116;-62
2022/05/19 12:28:50;;;;;;;1.38;1.10;;;17.60;51.40;19.60;94370.00;;;;10435367;28;45120;-63
2022/05/19 12:34:11;;;;;;;2.28;1.10;;;17.60;51.30;19.70;94371.00;;;;10435278;28;45278;-63
2022/05/19 12:39:45;;;;;;;2.90;1.10;;;17.60;51.30;19.70;94373.00;;;;10435160;28;45357;-63
2022/05/19 12:45:17;;;;;;;3.95;1.40;;;17.60;51.20;19.70;94363.00;;;;10435586;28;45152;-64
2022/05/19 12:50:49;;;;;;;3.40;1.17;;;17.60;51.20;19.70;94364.00;;;;10435311;28;45137;-63
2022/05/19 12:56:47;;;;;;;2.78;1.30;;;17.70;52.00;19.70;94379.00;;;;10435233;28;45142;-63
2022/05/19 13:02:11;;;;;;;2.22;1.15;;;17.70;51.60;19.70;94381.00;;;;10409417;28;45167;-63
2022/05/19 13:07:38;;;;;;;1.77;1.10;;;17.70;51.60;19.70;94383.00;;;;10436570;28;45215;-64
2022/05/19 13:13:05;;;;;;;2.60;1.10;;;17.70;51.60;19.70;94390.00;;;;10441359;28;45735;-63
2022/05/19 13:18:33;;;;;;;1.83;1.00;;;17.70;51.60;19.70;94413.00;;;;10441333;28;45696;-63
2022/05/19 13:23:53;;;;;;;2.03;1.10;;;17.70;51.40;19.70;94441.00;;;;10441116;28;45408;-62
2022/05/19 13:35:05;;;;;;;4.85;1.60;;;17.70;53.20;19.70;94467.00;;;;10441473;28;45175;-63
2022/05/19 13:40:30;;;;;;;2.85;1.30;;;17.60;53.00;19.70;94451.00;;;;10440785;28;45156;-63
2022/05/19 13:45:55;;;;;;;3.47;1.30;;;17.60;53.30;19.70;94456.00;;;;10439336;28;45211;-63
2022/05/19 13:51:22;;;;;;;2.08;1.30;;;17.60;53.30;19.60;94455.00;;;;10421008;28;45531;-63
2022/05/19 13:56:46;;;;;;;3.05;1.40;;;17.60;53.20;19.60;94432.00;;;;10423514;28;45351;-63
2022/05/19 14:02:15;;;;;;;1.92;1.33;;;17.60;54.00;19.60;94412.00;;;;10398560;28;45127;-63
2022/05/19 14:07:36;;;;;;;5.05;1.40;;;17.60;54.30;19.70;94407.00;;;;10420501;28;45250;-63
2022/05/19 14:13:02;;;;;;;3.53;1.63;;;17.60;54.30;19.60;94405.00;;;;10439461;28;45254;-63
2022/05/19 14:18:27;;;;;;;2.13;1.38;;;17.60;54.70;19.60;94407.00;;;;10438443;28;45167;-63
2022/05/19 14:23:51;;;;;;;3.22;1.20;;;17.60;53.90;19.70;94397.00;;;;10436948;28;45201;-63
2022/05/19 14:29:21;;;;;;;2.38;1.30;;;17.70;54.00;19.70;94391.00;;;;10434820;28;45755;-63
2022/05/19 14:34:45;;;;;;;2.08;1.20;;;17.70;53.70;19.80;94385.00;;;;10439059;28;45193;-63
2022/05/19 14:46:00;;;;;;;2.75;1.50;;;17.70;53.70;19.80;94395.00;;;;10407132;28;45755;-64
2022/05/19 14:51:25;;;;;;;1.60;1.02;;;17.80;53.50;19.80;94397.00;;;;10415090;28;45112;-63
2022/05/19 14:56:51;;;;;;;1.48;1.20;;;17.70;53.60;19.80;94422.00;;;;10438361;28;45765;-63
2022/05/19 15:02:11;;;;;;;3.15;1.38;;;17.70;53.60;19.80;94410.00;;;;10438286;28;45239;-63
2022/05/19 15:07:41;;;;;;;3.35;1.10;;;17.80;53.80;19.80;94396.00;;;;10438407;28;45769;-63
2022/05/19 15:13:03;;;;;;;4.15;2.83;;;17.70;53.50;19.80;94417.00;;;;10437720;28;45315;-63
2022/05/19 15:18:24;;;;;;;3.10;2.50;;;17.80;53.70;19.80;94419.00;;;;10437776;28;45693;-63
2022/05/19 15:23:46;;;;;;;4.45;2.15;;;17.80;53.70;19.90;94420.00;;;;10437968;28;45248;-63
2022/05/19 15:29:07;;;;;;;4.82;2.60;;;17.80;53.60;19.90;94413.00;;;;10437065;28;45152;-63
2022/05/19 15:34:28;;;;;;;3.13;2.67;;;17.80;53.80;19.90;94415.00;;;;10437459;28;45163;-63
2022/05/19 15:39:51;;;;;;;2.58;2.28;;;17.80;53.80;19.90;94415.00;;;;10436799;28;45211;-64
2022/05/19 15:45:13;;;;;;;2.90;2.40;;;17.80;54.00;19.90;94419.00;;;;10437196;28;45744;-64
2022/05/19 15:50:39;;;;;;;3.28;2.00;;;17.90;53.60;19.90;94432.00;;;;10436743;28;45291;-64
2022/05/19 15:56:01;;;;;;;2.47;1.90;;;17.90;53.80;19.90;94437.00;;;;10436578;28;45145;-63
2022/05/19 16:01:22;;;;;;;2.47;1.70;;;17.90;53.60;19.90;94435.00;;;;10436277;28;45789;-64
2022/05/19 16:06:43;;;;;;;3.70;1.88;;;17.90;53.60;19.90;94445.00;;;;10436357;28;45126;-63
2022/05/19 16:12:07;;;;;;;2.47;1.85;;;17.90;53.50;20.00;94456.00;;;;10435777;28;45232;-63
2022/05/19 16:17:27;;;;;;;3.08;1.90;;;17.90;53.40;20.00;94442.00;;;;10436062;28;45181;-63
2022/05/19 16:22:52;;;;;;;2.30;1.63;;;17.90;53.30;20.00;94450.00;;;;10436371;28;45673;-64
2022/05/19 16:28:14;;;;;;;2.00;1.48;;;17.90;53.30;20.00;94453.00;;;;10435797;28;45137;-64
2022/05/19 16:33:35;;;;;;;2.05;1.50;;;17.90;53.00;20.00;94451.00;;;;10435671;28;45141;-63
2022/05/19 16:38:57;;;;;;;3.38;1.50;;;17.90;53.10;20.00;94448.00;;;;10435290;28;45787;-63
2022/05/19 16:44:20;;;;;;;2.22;1.40;;;17.90;52.90;20.00;94441.00;;;;10439115;28;45254;-63
2022/05/19 16:49:41;;;;;;;2.42;1.48;;;17.90;52.60;20.00;94447.00;;;;10442434;28;45869;-64
2022/05/19 17:00:47;;;;;;;4.82;2.20;;;18.00;52.40;20.10;94451.00;;;;10431633;28;45178;-63
2022/05/19 17:06:07;;;;;;;;;;;18.00;52.40;20.10;94462.00;;;;10442243;28;45878;-64
2022/05/19 17:11:29;;;;;;;1.98;1.50;;;18.00;52.40;20.10;94453.00;;;;10420389;28;45287;-63
2022/05/19 17:16:51;;;;;;;1.75;1.38;;;18.00;52.30;20.10;94458.00;;;;10399986;28;45871;-63
2022/05/19 17:22:11;;;;;;;2.25;1.20;;;18.00;52.40;20.10;94460.00;;;;10428993;28;45137;-63
2022/05/19 17:27:34;;;;;;;2.53;1.70;;;18.00;52.30;20.10;94463.00;;;;10440846;28;45775;-63
2022/05/19 17:32:58;;;;;;;2.70;1.30;;;18.00;52.40;20.00;94461.00;;;;10439949;28;45871;-63
2022/05/19 17:38:18;;;;;;;1.95;1.08;;;18.00;52.50;20.00;94464.00;;;;10404217;28;45730;-63
2022/05/19 17:43:40;;;;;;;1.65;1.20;;;17.90;52.50;20.00;94469.00;;;;10418084;28;45837;-64
2022/05/19 17:49:02;;;;;;;1.98;1.10;;;17.90;52.40;20.00;94459.00;;;;10398495;28;45328;-63
2022/05/19 17:54:24;;;;;;;3.40;1.20;;;18.00;52.60;20.00;94463.00;;;;10398797;28;45156;-63
2022/05/19 17:59:44;;;;;;;1.70;1.20;;;17.90;52.50;20.00;94446.00;;;;10398490;28;45123;-63
2022/05/19 18:05:11;;;;;;;1.33;1.15;;;17.90;52.50;20.00;94452.00;;;;10408229;28;45264;-64
2022/05/19 18:10:33;;;;;;;1.77;1.30;;;17.90;52.50;20.00;94465.00;;;;10400392;28;45130;-64
2022/05/19 18:21:33;;;;;;;1.92;1.23;;;17.90;52.50;19.90;94467.00;;;;10439398;28;45788;-63
2022/05/19 18:26:54;;;;;;;2.13;1.27;;;17.90;52.60;19.90;94482.00;;;;10438855;28;45117;-64
2022/05/19 18:32:14;;;;;;;2.10;1.27;;;17.90;52.50;19.90;94473.00;;;;10439036;28;45769;-64
2022/05/19 18:37:36;;;;;;;1.95;1.00;;;17.80;52.50;19.90;94481.00;;;;10439244;28;45855;-64
2022/05/19 18:48:37;;;;;;;1.90;1.15;;;17.80;52.40;19.90;94491.00;;;;10438486;28;45200;-63
2022/05/19 18:53:59;;;;;;;1.40;1.15;;;17.80;52.40;19.90;94497.00;;;;10438438;28;45350;-64
2022/05/19 18:59:19;;;;;;;2.00;1.00;;;17.80;52.40;19.90;94483.00;;;;10437930;28;45681;-64
2022/05/19 19:04:41;;;;;;;1.77;1.00;;;17.80;52.50;19.80;94487.00;;;;10437585;28;45383;-64
2022/05/19 19:10:05;;;;;;;1.63;1.10;;;17.80;52.60;19.80;94482.00;;;;10437478;28;45283;-65
2022/05/19 19:15:25;;;;;;;1.50;1.08;;;17.80;52.50;19.80;94486.00;;;;10437300;28;45046;-64
2022/05/19 19:20:46;;;;;;;1.45;0.95;;;17.80;52.70;19.80;94483.00;;;;10437432;28;45871;-64
2022/05/19 19:26:08;;;;;;;1.30;1.20;;;17.70;52.60;19.80;94485.00;;;;10437279;28;45336;-64
2022/05/19 19:31:29;;;;;;;1.00;0.90;;;17.70;52.90;19.80;94503.00;;;;10437119;28;45155;-63
2022/05/19 19:36:50;;;;;;;1.42;1.20;;;17.70;52.90;19.80;94500.00;;;;10437142;28;45157;-63
2022/05/19 19:42:11;;;;;;;1.30;1.00;;;17.70;53.00;19.80;94509.00;;;;10436936;28;45773;-64
2022/05/19 19:47:32;;;;;;;1.75;1.10;;;17.70;52.90;19.80;94523.00;;;;10436449;28;45899;-64
2022/05/19 19:52:54;;;;;;;1.40;1.00;;;17.70;53.10;19.80;94522.00;;;;10436219;28;45348;-64
2022/05/19 19:58:19;;;;;;;2.33;1.10;;;17.70;53.30;19.70;94510.00;;;;10431597;28;45227;-63
2022/05/19 20:03:40;;;;;;;2.15;1.10;;;17.70;53.40;19.80;94508.00;;;;10436558;28;45967;-64
2022/05/19 20:09:00;;;;;;;1.88;1.13;;;17.70;53.50;19.70;94518.00;;;;10435548;28;45167;-63
2022/05/19 20:14:22;;;;;;;1.83;0.93;;;17.70;53.40;19.70;94519.00;;;;10436377;28;45193;-63
2022/05/19 20:19:43;;;;;;;1.30;1.02;;;17.70;53.70;19.70;94530.00;;;;10440627;28;45702;-63
2022/05/19 20:25:04;;;;;;;1.20;1.10;;;17.60;53.70;19.70;94536.00;;;;10443782;28;45126;-63
2022/05/19 20:30:27;;;;;;;1.38;1.00;;;17.70;53.70;19.70;94527.00;;;;10443103;28;45183;-63
2022/05/19 20:35:47;;;;;;;1.85;1.30;;;17.70;53.90;19.70;94541.00;;;;10443023;28;45189;-63
2022/05/19 20:41:08;;;;;;;2.13;1.30;;;17.60;54.00;19.70;94542.00;;;;10442975;28;45192;-63
2022/05/19 20:46:31;;;;;;;1.67;1.10;;;17.60;54.20;19.70;94532.00;;;;10442840;28;45232;-64
2022/05/19 20:51:52;;;;;;;1.70;1.10;;;17.60;54.00;19.70;94541.00;;;;10441715;28;45141;-64
2022/05/19 20:57:17;;;;;;;2.05;1.13;;;17.60;54.20;19.70;94549.00;;;;10442269;28;45156;-64
2022/05/19 21:02:38;;;;;;;1.50;1.23;;;17.60;54.10;19.70;94552.00;;;;10442241;28;45264;-64
2022/05/19 21:07:59;;;;;;;2.28;1.00;;;17.60;54.20;19.70;94548.00;;;;10442031;28;45804;-63
2022/05/19 21:13:20;;;;;;;3.25;1.17;;;17.60;54.40;19.70;94549.00;;;;10441370;28;45188;-64
2022/05/19 21:18:43;;;;;;;1.80;1.25;;;17.60;54.20;19.70;94555.00;;;;10441619;28;45827;-63
2022/05/19 21:29:44;;;;;;;2.55;1.30;;;17.60;54.50;19.70;94566.00;;;;10440648;28;45905;-63
2022/05/19 21:35:08;;;;;;;2.00;1.25;;;17.60;54.60;19.70;94570.00;;;;10441545;28;45140;-63
2022/05/19 21:40:29;;;;;;;1.50;1.13;;;17.60;54.60;19.70;94561.00;;;;10441161;28;45209;-64
2022/05/19 21:45:54;;;;;;;1.63;1.10;;;17.60;54.80;19.70;94556.00;;;;10440946;28;45233;-63
2022/05/19 21:56:54;;;;;;;2.15;1.10;;;17.60;54.30;19.70;94571.00;;;;10440402;28;45771;-64
2022/05/19 22:02:14;;;;;;;1.33;1.00;;;17.50;54.50;19.70;94557.00;;;;10440366;28;45108;-63
2022/05/19 22:07:36;;;;;;;2.03;1.30;;;17.60;54.70;19.70;94566.00;;;;10440191;28;45166;-63
2022/05/19 22:12:57;;;;;;;1.95;1.20;;;17.60;54.70;19.60;94553.00;;;;10438058;28;45230;-63
2022/05/19 22:18:17;;;;;;;1.90;1.30;;;17.60;54.80;19.70;94566.00;;;;10439278;28;45208;-63
2022/05/19 22:23:39;;;;;;;2.03;1.42;;;17.60;54.80;19.70;94554.00;;;;10439222;28;45279;-63
2022/05/19 22:29:00;;;;;;;1.60;1.20;;;17.60;54.90;19.60;94577.00;;;;10439403;28;46242;-63
2022/05/19 22:34:21;;;;;;;1.63;1.30;;;17.60;55.00;19.70;94586.00;;;;10439650;28;45248;-64
2022/05/19 22:39:45;;;;;;;1.63;1.15;;;17.60;54.70;19.60;94573.00;;;;10437996;28;45171;-63
2022/05/19 22:45:07;;;;;;;1.95;1.23;;;17.60;54.90;19.60;94578.00;;;;10439219;28;45759;-63
2022/05/19 22:50:31;;;;;;;1.75;1.30;;;17.60;55.00;19.60;94586.00;;;;10438741;28;45193;-63
2022/05/19 22:55:53;;;;;;;1.63;1.23;;;17.60;55.00;19.60;94583.00;;;;10438416;28;45168;-63
2022/05/19 23:01:14;;;;;;;1.90;1.15;;;17.60;55.10;19.60;94582.00;;;;10438446;28;45685;-63
2022/05/19 23:06:34;;;;;;;2.22;1.48;;;17.60;55.00;19.60;94575.00;;;;10438207;28;45103;-64
2022/05/19 23:11:56;;;;;;;1.75;1.30;;;17.60;55.40;19.60;94586.00;;;;10437693;28;45731;-63
2022/05/19 23:17:17;;;;;;;2.13;1.30;;;17.50;55.10;19.60;94588.00;;;;10437893;28;45248;-63
2022/05/19 23:22:38;;;;;;;1.20;1.10;;;17.60;55.10;19.60;94588.00;;;;10437833;28;45840;-64
2022/05/19 23:28:00;;;;;;;2.55;1.40;;;17.50;55.20;19.60;94586.00;;;;10437473;28;45221;-64
2022/05/19 23:33:21;;;;;;;1.83;1.20;;;17.50;55.10;19.60;94593.00;;;;10437475;28;45266;-64
2022/05/19 23:38:42;;;;;;;1.55;1.20;;;17.60;56.00;19.60;94586.00;;;;10437146;28;45191;-63
2022/05/19 23:44:05;;;;;;;1.95;1.40;;;17.50;55.40;19.60;94574.00;;;;10437399;28;45100;-64
2022/05/19 23:49:25;;;;;;;1.95;1.20;;;17.50;55.30;19.60;94591.00;;;;10436880;28;45688;-64
2022/05/19 23:54:47;;;;;;;2.22;1.42;;;17.50;55.20;19.60;94584.00;;;;10437212;28;45753;-65
